createdAt,value
2019-03-06T00:00:36.061Z,0.02
2019-03-06T00:01:36.102Z,0.07
2019-03-06T00:02:36.091Z,0.25
2019-03-06T00:03:36.109Z,0.00
2019-03-06T00:04:36.117Z,0.00
2019-03-06T00:05:36.116Z,0.55
2019-03-06T00:06:36.115Z,0.03
2019-03-06T00:07:36.115Z,0.00
2019-03-06T00:08:36.152Z,0.00
2019-03-06T00:09:36.136Z,0.00
2019-03-06T00:10:36.152Z,0.00
2019-03-06T00:11:36.141Z,0.00
2019-03-06T00:12:36.169Z,0.00
2019-03-06T00:13:36.167Z,0.00
2019-03-06T00:14:36.178Z,0.00
2019-03-06T00:15:36.202Z,0.00
2019-03-06T00:16:36.215Z,0.36
2019-03-06T00:17:36.201Z,0.18
2019-03-06T00:18:36.222Z,0.45
2019-03-06T00:19:36.239Z,0.00
2019-03-06T00:20:36.225Z,0.15
2019-03-06T00:21:36.242Z,0.64
2019-03-06T00:22:36.243Z,0.00
2019-03-06T00:23:36.248Z,0.00
2019-03-06T00:24:36.234Z,0.34
2019-03-06T00:25:36.255Z,0.85
2019-03-06T00:26:36.281Z,0.42
2019-03-06T00:27:36.323Z,0.21
2019-03-06T00:28:36.300Z,0.00
2019-03-06T00:29:36.300Z,0.03
2019-03-06T00:30:36.267Z,0.00
2019-03-06T00:31:36.291Z,0.19
2019-03-06T00:32:36.317Z,0.75
2019-03-06T00:33:36.325Z,0.96
2019-03-06T00:34:36.324Z,0.10
2019-03-06T00:35:36.330Z,0.00
2019-03-06T00:36:36.318Z,0.00
2019-03-06T00:37:36.357Z,0.00
2019-03-06T00:38:36.368Z,0.31
2019-03-06T00:39:36.403Z,0.28
2019-03-06T00:40:36.372Z,0.02
2019-03-06T00:41:36.379Z,0.00
2019-03-06T00:42:36.386Z,0.00
2019-03-06T00:43:36.591Z,0.00
2019-03-06T00:44:36.620Z,0.00
2019-03-06T00:45:36.817Z,0.00
2019-03-06T00:46:36.634Z,0.15
2019-03-06T00:47:36.619Z,0.54
2019-03-06T00:48:36.635Z,0.86
2019-03-06T00:49:36.663Z,0.24
2019-03-06T00:50:36.659Z,0.30
2019-03-06T00:51:36.669Z,0.00
2019-03-06T00:52:36.854Z,0.00
2019-03-06T00:53:36.665Z,0.00
2019-03-06T00:54:36.680Z,0.04
2019-03-06T00:55:36.682Z,0.00
2019-03-06T00:56:36.703Z,0.00
2019-03-06T00:57:36.703Z,0.00
2019-03-06T00:58:36.711Z,0.00
2019-03-06T00:59:36.701Z,0.14
2019-03-06T01:00:36.714Z,0.02
2019-03-06T01:01:36.724Z,0.00
2019-03-06T01:02:36.732Z,0.00
2019-03-06T01:03:36.739Z,0.00
2019-03-06T01:04:36.753Z,0.00
2019-03-06T01:05:36.743Z,0.31
2019-03-06T01:06:36.764Z,0.59
2019-03-06T01:07:36.782Z,0.23
2019-03-06T01:08:36.807Z,0.00
2019-03-06T01:09:36.807Z,0.76
2019-03-06T01:10:36.793Z,0.43
2019-03-06T01:11:36.825Z,0.01
2019-03-06T01:12:36.820Z,0.00
2019-03-06T01:13:36.806Z,0.04
2019-03-06T01:14:36.808Z,0.63
2019-03-06T01:15:36.825Z,0.36
2019-03-06T01:16:36.839Z,0.01
2019-03-06T01:17:36.819Z,0.00
2019-03-06T01:18:36.874Z,0.00
2019-03-06T01:19:36.862Z,0.00
2019-03-06T01:20:36.859Z,0.00
2019-03-06T01:21:36.890Z,0.00
2019-03-06T01:22:36.893Z,0.01
2019-03-06T01:23:36.888Z,0.18
2019-03-06T01:24:36.908Z,0.00
2019-03-06T01:25:36.914Z,0.00
2019-03-06T01:26:36.929Z,0.00
2019-03-06T01:27:36.935Z,0.00
2019-03-06T01:28:36.925Z,0.00
2019-03-06T01:29:36.916Z,0.00
2019-03-06T01:30:36.929Z,0.00
2019-03-06T01:31:36.936Z,0.00
2019-03-06T01:32:37.151Z,0.50
2019-03-06T01:33:37.196Z,0.86
2019-03-06T01:34:37.196Z,0.82
2019-03-06T01:35:37.177Z,0.58
2019-03-06T01:36:37.180Z,0.56
2019-03-06T01:37:37.193Z,0.14
2019-03-06T01:38:37.196Z,0.01
2019-03-06T01:39:37.241Z,0.00
2019-03-06T01:40:37.222Z,0.00
2019-03-06T01:41:37.221Z,0.00
2019-03-06T01:42:37.226Z,0.00
2019-03-06T01:43:37.222Z,0.00
2019-03-06T01:44:37.263Z,0.00
2019-03-06T01:45:37.487Z,0.00
2019-03-06T01:46:37.279Z,0.00
2019-03-06T01:47:37.256Z,0.00
2019-03-06T01:48:37.265Z,0.06
2019-03-06T01:49:37.280Z,0.18
2019-03-06T01:50:37.306Z,0.00
2019-03-06T01:51:37.344Z,0.00
2019-03-06T01:52:37.304Z,0.00
2019-03-06T01:53:37.300Z,0.00
2019-03-06T01:54:37.351Z,0.00
2019-03-06T01:55:37.328Z,0.00
2019-03-06T01:56:37.347Z,0.01
2019-03-06T01:57:37.328Z,1.60
2019-03-06T01:58:37.573Z,1.92
2019-03-06T01:59:37.339Z,2.01
2019-03-06T02:00:37.350Z,1.41
2019-03-06T02:01:37.367Z,0.72
2019-03-06T02:02:37.409Z,0.20
2019-03-06T02:03:38.920Z,0.12
2019-03-06T02:04:37.404Z,0.12
2019-03-06T02:05:37.389Z,0.26
2019-03-06T02:06:37.398Z,0.23
2019-03-06T02:07:37.423Z,0.33
2019-03-06T02:08:37.434Z,0.01
2019-03-06T02:09:37.438Z,0.00
2019-03-06T02:10:37.415Z,0.00
2019-03-06T02:11:37.479Z,0.51
2019-03-06T02:12:37.429Z,0.49
2019-03-06T02:13:37.441Z,0.44
2019-03-06T02:14:37.471Z,0.34
2019-03-06T02:15:37.488Z,0.14
2019-03-06T02:16:37.470Z,0.00
2019-03-06T02:17:37.488Z,0.00
2019-03-06T02:18:37.521Z,0.00
2019-03-06T02:19:37.498Z,0.00
2019-03-06T02:20:37.509Z,0.00
2019-03-06T02:21:37.550Z,0.04
2019-03-06T02:22:37.553Z,0.11
2019-03-06T02:23:37.527Z,0.00
2019-03-06T02:24:37.338Z,0.00
2019-03-06T02:25:37.350Z,0.00
2019-03-06T02:26:37.405Z,0.56
2019-03-06T02:27:37.374Z,0.81
2019-03-06T02:28:37.348Z,0.53
2019-03-06T02:29:37.377Z,0.09
2019-03-06T02:30:37.353Z,0.00
2019-03-06T02:31:37.399Z,0.11
2019-03-06T02:32:37.399Z,0.15
2019-03-06T02:33:37.417Z,0.46
2019-03-06T02:34:37.408Z,0.08
2019-03-06T02:35:37.410Z,0.01
2019-03-06T02:36:37.424Z,0.00
2019-03-06T02:37:37.438Z,0.00
2019-03-06T02:38:37.500Z,0.08
2019-03-06T02:39:37.485Z,0.51
2019-03-06T02:40:37.425Z,0.72
2019-03-06T02:41:37.442Z,0.96
2019-03-06T02:42:37.452Z,0.36
2019-03-06T02:43:37.476Z,0.20
2019-03-06T02:44:39.951Z,0.06
2019-03-06T02:45:37.500Z,0.00
2019-03-06T02:46:37.509Z,0.02
2019-03-06T02:47:37.498Z,0.01
2019-03-06T02:48:37.512Z,0.16
2019-03-06T02:49:37.517Z,0.00
2019-03-06T02:50:37.530Z,0.00
2019-03-06T02:51:37.563Z,0.00
2019-03-06T02:52:37.550Z,0.04
2019-03-06T02:53:37.548Z,0.43
2019-03-06T02:54:37.343Z,0.45
2019-03-06T02:55:37.369Z,0.00
2019-03-06T02:56:37.378Z,0.00
2019-03-06T02:57:37.386Z,0.00
2019-03-06T02:58:37.371Z,0.00
2019-03-06T02:59:37.375Z,0.00
2019-03-06T03:00:37.408Z,0.00
2019-03-06T03:01:37.403Z,0.00
2019-03-06T03:02:37.417Z,0.00
2019-03-06T03:03:37.442Z,0.00
2019-03-06T03:04:37.422Z,0.00
2019-03-06T03:05:37.424Z,0.00
2019-03-06T03:06:37.460Z,0.47
2019-03-06T03:07:37.455Z,0.42
2019-03-06T03:08:37.447Z,0.07
2019-03-06T03:09:37.454Z,0.00
2019-03-06T03:10:37.492Z,0.00
2019-03-06T03:11:37.468Z,0.00
2019-03-06T03:12:37.469Z,0.00
2019-03-06T03:13:37.487Z,0.00
2019-03-06T03:14:37.544Z,0.45
2019-03-06T03:15:37.533Z,0.67
2019-03-06T03:16:37.532Z,0.64
2019-03-06T03:17:37.506Z,0.23
2019-03-06T03:18:37.547Z,0.00
2019-03-06T03:19:37.541Z,0.06
2019-03-06T03:20:37.603Z,0.66
2019-03-06T03:21:37.574Z,0.27
2019-03-06T03:22:37.559Z,0.00
2019-03-06T03:23:37.556Z,0.00
2019-03-06T03:24:37.401Z,0.00
2019-03-06T03:25:37.365Z,0.05
2019-03-06T03:26:37.473Z,0.21
2019-03-06T03:27:37.416Z,0.01
2019-03-06T03:28:37.407Z,0.00
2019-03-06T03:29:37.395Z,0.10
2019-03-06T03:30:37.436Z,0.13
2019-03-06T03:31:37.409Z,0.04
2019-03-06T03:32:37.444Z,0.04
2019-03-06T03:33:37.448Z,0.00
2019-03-06T03:34:37.445Z,0.00
2019-03-06T03:35:37.430Z,0.06
2019-03-06T03:36:37.461Z,0.05
2019-03-06T03:37:37.479Z,0.00
2019-03-06T03:38:37.476Z,0.19
2019-03-06T03:39:37.476Z,0.66
2019-03-06T03:40:37.519Z,0.06
2019-03-06T03:41:37.494Z,0.28
2019-03-06T03:42:37.477Z,0.82
2019-03-06T03:43:37.535Z,0.69
2019-03-06T03:44:37.514Z,0.58
2019-03-06T03:45:37.542Z,0.75
2019-03-06T03:46:37.553Z,0.28
2019-03-06T03:47:37.524Z,0.00
2019-03-06T03:48:37.565Z,0.00
2019-03-06T03:49:37.540Z,0.00
2019-03-06T03:50:37.784Z,0.01
2019-03-06T03:51:37.554Z,0.29
2019-03-06T03:52:37.567Z,0.33
2019-03-06T03:53:37.790Z,0.00
2019-03-06T03:54:37.787Z,0.00
2019-03-06T03:55:37.862Z,0.01
2019-03-06T03:56:37.820Z,0.00
2019-03-06T03:57:37.810Z,0.00
2019-03-06T03:58:37.831Z,0.00
2019-03-06T03:59:37.815Z,0.00
2019-03-06T04:00:37.827Z,0.00
2019-03-06T04:01:37.852Z,0.00
2019-03-06T04:02:37.851Z,0.01
2019-03-06T04:03:37.871Z,0.10
2019-03-06T04:04:37.874Z,0.00
2019-03-06T04:05:37.890Z,0.01
2019-03-06T04:06:37.920Z,0.29
2019-03-06T04:07:37.935Z,0.14
2019-03-06T04:08:37.904Z,0.00
2019-03-06T04:09:37.901Z,0.00
2019-03-06T04:10:37.902Z,0.04
2019-03-06T04:11:37.914Z,0.29
2019-03-06T04:12:37.927Z,0.12
2019-03-06T04:13:38.027Z,0.00
2019-03-06T04:14:38.030Z,0.00
2019-03-06T04:15:37.939Z,0.00
2019-03-06T04:16:37.967Z,0.00
2019-03-06T04:17:37.960Z,0.00
2019-03-06T04:18:38.008Z,0.00
2019-03-06T04:19:37.980Z,0.00
2019-03-06T04:20:37.981Z,0.00
2019-03-06T04:21:37.985Z,0.00
2019-03-06T04:22:38.010Z,0.00
2019-03-06T04:23:38.016Z,0.00
2019-03-06T04:24:38.002Z,0.00
2019-03-06T04:25:38.060Z,0.00
2019-03-06T04:26:38.041Z,0.00
2019-03-06T04:27:38.020Z,0.00
2019-03-06T04:28:38.057Z,0.02
2019-03-06T04:29:38.040Z,0.48
2019-03-06T04:30:38.067Z,0.95
2019-03-06T04:31:38.088Z,0.63
2019-03-06T04:32:38.069Z,1.07
2019-03-06T04:33:38.094Z,1.22
2019-03-06T04:34:38.095Z,1.55
2019-03-06T04:35:38.287Z,1.12
2019-03-06T04:36:38.087Z,1.61
2019-03-06T04:37:38.130Z,2.36
2019-03-06T04:38:38.116Z,1.35
2019-03-06T04:39:38.145Z,1.30
2019-03-06T04:40:38.128Z,1.00
2019-03-06T04:41:38.322Z,0.78
2019-03-06T04:42:38.378Z,0.47
2019-03-06T04:43:38.371Z,0.00
2019-03-06T04:44:38.377Z,0.03
2019-03-06T04:45:38.375Z,0.01
2019-03-06T04:46:38.389Z,0.00
2019-03-06T04:47:38.387Z,0.00
2019-03-06T04:48:38.392Z,0.00
2019-03-06T04:49:38.434Z,0.44
2019-03-06T04:50:38.410Z,0.36
2019-03-06T04:51:38.414Z,0.00
2019-03-06T04:52:38.433Z,0.32
2019-03-06T04:53:38.427Z,0.10
2019-03-06T04:54:38.440Z,0.12
2019-03-06T04:55:38.444Z,1.00
2019-03-06T04:56:38.455Z,0.39
2019-03-06T04:57:38.447Z,0.01
2019-03-06T04:58:38.426Z,0.11
2019-03-06T04:59:38.475Z,0.00
2019-03-06T05:00:38.459Z,0.00
2019-03-06T05:01:38.514Z,0.54
2019-03-06T05:02:38.486Z,0.50
2019-03-06T05:03:38.477Z,0.00
2019-03-06T05:04:38.509Z,0.28
2019-03-06T05:05:38.489Z,0.79
2019-03-06T05:06:38.541Z,1.39
2019-03-06T05:07:38.587Z,0.69
2019-03-06T05:08:38.559Z,0.27
2019-03-06T05:09:38.773Z,0.55
2019-03-06T05:10:38.540Z,0.42
2019-03-06T05:11:38.549Z,0.16
2019-03-06T05:12:38.571Z,0.05
2019-03-06T05:13:38.595Z,0.96
2019-03-06T05:14:38.597Z,0.14
2019-03-06T05:15:38.588Z,0.21
2019-03-06T05:16:38.579Z,0.38
2019-03-06T05:17:38.604Z,0.07
2019-03-06T05:18:40.368Z,0.00
2019-03-06T05:19:38.647Z,0.88
2019-03-06T05:20:38.635Z,0.69
2019-03-06T05:21:38.624Z,0.01
2019-03-06T05:22:38.633Z,0.48
2019-03-06T05:23:38.658Z,0.93
2019-03-06T05:24:38.667Z,0.07
2019-03-06T05:25:38.664Z,0.60
2019-03-06T05:26:38.673Z,0.88
2019-03-06T05:27:38.665Z,0.60
2019-03-06T05:28:38.675Z,0.06
2019-03-06T05:29:38.672Z,0.00
2019-03-06T05:30:38.702Z,0.00
2019-03-06T05:31:38.722Z,0.00
2019-03-06T05:32:38.715Z,0.00
2019-03-06T05:33:38.705Z,0.00
2019-03-06T05:34:38.732Z,0.00
2019-03-06T05:35:38.719Z,0.15
2019-03-06T05:36:38.771Z,0.58
2019-03-06T05:37:38.763Z,0.61
2019-03-06T05:38:38.746Z,0.00
2019-03-06T05:39:38.769Z,0.37
2019-03-06T05:40:38.776Z,0.00
2019-03-06T05:41:38.772Z,0.00
2019-03-06T05:42:38.583Z,0.00
2019-03-06T05:43:38.614Z,0.00
2019-03-06T05:44:38.600Z,0.00
2019-03-06T05:45:38.587Z,0.00
2019-03-06T05:46:38.615Z,0.00
2019-03-06T05:47:38.649Z,0.01
2019-03-06T05:48:38.608Z,0.45
2019-03-06T05:49:38.636Z,0.00
2019-03-06T05:50:38.641Z,0.23
2019-03-06T05:51:38.650Z,0.10
2019-03-06T05:52:38.657Z,0.00
2019-03-06T05:53:38.645Z,0.03
2019-03-06T05:54:38.676Z,0.18
2019-03-06T05:55:38.719Z,0.00
2019-03-06T05:56:38.727Z,0.00
2019-03-06T05:57:38.694Z,0.05
2019-03-06T05:58:38.724Z,0.51
2019-03-06T05:59:38.700Z,0.28
2019-03-06T06:00:38.712Z,0.00
2019-03-06T06:01:38.733Z,0.00
2019-03-06T06:02:38.723Z,0.00
2019-03-06T06:03:38.729Z,0.00
2019-03-06T06:04:38.742Z,0.00
2019-03-06T06:05:38.750Z,0.00
2019-03-06T06:06:38.792Z,0.00
2019-03-06T06:07:38.780Z,0.00
2019-03-06T06:08:38.770Z,0.01
2019-03-06T06:09:38.785Z,0.08
2019-03-06T06:10:38.804Z,0.02
2019-03-06T06:11:38.787Z,0.00
2019-03-06T06:12:38.610Z,0.00
2019-03-06T06:13:38.645Z,0.00
2019-03-06T06:14:39.226Z,0.02
2019-03-06T06:15:38.620Z,0.00
2019-03-06T06:16:38.659Z,0.00
2019-03-06T06:17:38.625Z,0.00
2019-03-06T06:18:38.645Z,1.18
2019-03-06T06:19:38.662Z,1.55
2019-03-06T06:20:38.665Z,1.14
2019-03-06T06:21:38.646Z,0.75
2019-03-06T06:22:38.655Z,1.15
2019-03-06T06:23:38.678Z,1.01
2019-03-06T06:24:38.715Z,1.29
2019-03-06T06:25:38.706Z,1.14
2019-03-06T06:26:38.683Z,0.70
2019-03-06T06:27:38.718Z,0.11
2019-03-06T06:28:38.766Z,0.29
2019-03-06T06:29:38.711Z,0.77
2019-03-06T06:30:38.733Z,0.54
2019-03-06T06:31:38.737Z,0.23
2019-03-06T06:32:38.744Z,0.04
2019-03-06T06:33:38.743Z,0.02
2019-03-06T06:34:38.787Z,0.02
2019-03-06T06:35:38.779Z,0.00
2019-03-06T06:36:38.792Z,0.00
2019-03-06T06:37:38.777Z,0.00
2019-03-06T06:38:38.784Z,0.00
2019-03-06T06:39:38.793Z,0.00
2019-03-06T06:40:38.812Z,0.01
2019-03-06T06:41:39.040Z,0.00
2019-03-06T06:42:38.624Z,0.00
2019-03-06T06:43:38.600Z,0.00
2019-03-06T06:44:38.643Z,0.00
2019-03-06T06:45:38.639Z,0.00
2019-03-06T06:46:38.651Z,0.00
2019-03-06T06:47:38.660Z,0.47
2019-03-06T06:48:38.701Z,0.16
2019-03-06T06:49:38.672Z,0.68
2019-03-06T06:50:38.695Z,1.02
2019-03-06T06:51:38.686Z,1.12
2019-03-06T06:52:38.687Z,0.51
2019-03-06T06:53:38.701Z,0.07
2019-03-06T06:54:38.703Z,0.63
2019-03-06T06:55:38.717Z,0.56
2019-03-06T06:56:38.701Z,0.17
2019-03-06T06:57:38.706Z,0.00
2019-03-06T06:58:38.710Z,0.00
2019-03-06T06:59:38.748Z,0.00
2019-03-06T07:00:38.758Z,0.00
2019-03-06T07:01:38.744Z,0.06
2019-03-06T07:02:39.575Z,0.09
2019-03-06T07:03:38.790Z,0.32
2019-03-06T07:04:38.814Z,0.81
2019-03-06T07:05:38.817Z,0.44
2019-03-06T07:06:38.780Z,1.17
2019-03-06T07:07:38.793Z,1.40
2019-03-06T07:08:38.790Z,1.45
2019-03-06T07:09:38.801Z,1.69
2019-03-06T07:10:38.840Z,1.62
2019-03-06T07:11:39.057Z,0.88
2019-03-06T07:12:38.804Z,1.50
2019-03-06T07:13:38.660Z,1.52
2019-03-06T07:14:38.646Z,0.71
2019-03-06T07:15:38.662Z,1.22
2019-03-06T07:16:38.673Z,2.26
2019-03-06T07:17:38.681Z,2.00
2019-03-06T07:18:38.679Z,0.98
2019-03-06T07:19:38.717Z,1.19
2019-03-06T07:20:38.883Z,2.08
2019-03-06T07:21:38.892Z,1.61
2019-03-06T07:22:38.932Z,2.87
2019-03-06T07:23:38.915Z,1.44
2019-03-06T07:24:38.901Z,1.18
2019-03-06T07:25:38.945Z,1.35
2019-03-06T07:26:38.928Z,0.38
2019-03-06T07:27:38.953Z,1.15
2019-03-06T07:28:38.952Z,1.56
2019-03-06T07:29:38.945Z,1.07
2019-03-06T07:30:38.964Z,1.37
2019-03-06T07:31:38.993Z,1.65
2019-03-06T07:32:38.974Z,0.92
2019-03-06T07:33:38.991Z,1.03
2019-03-06T07:34:39.008Z,1.49
2019-03-06T07:35:38.989Z,1.49
2019-03-06T07:36:39.001Z,0.97
2019-03-06T07:37:39.014Z,0.89
2019-03-06T07:38:39.021Z,0.99
2019-03-06T07:39:39.052Z,1.16
2019-03-06T07:40:39.060Z,0.84
2019-03-06T07:41:39.033Z,0.25
2019-03-06T07:42:39.040Z,0.17
2019-03-06T07:43:39.075Z,0.66
2019-03-06T07:44:39.089Z,1.09
2019-03-06T07:45:39.074Z,1.29
2019-03-06T07:46:39.105Z,0.95
2019-03-06T07:47:39.083Z,0.35
2019-03-06T07:48:39.112Z,0.03
2019-03-06T07:49:44.967Z,0.45
2019-03-06T07:50:39.100Z,0.00
2019-03-06T07:51:39.130Z,0.64
2019-03-06T07:52:39.139Z,1.56
2019-03-06T07:53:39.128Z,0.84
2019-03-06T07:54:39.134Z,1.11
2019-03-06T07:55:39.148Z,0.87
2019-03-06T07:56:39.151Z,0.64
2019-03-06T07:57:39.190Z,0.39
2019-03-06T07:58:39.197Z,0.56
2019-03-06T07:59:39.187Z,0.81
2019-03-06T08:00:39.183Z,0.67
2019-03-06T08:01:39.202Z,0.61
2019-03-06T08:02:39.205Z,0.32
2019-03-06T08:03:39.227Z,1.22
2019-03-06T08:04:39.240Z,1.03
2019-03-06T08:05:39.223Z,0.59
2019-03-06T08:06:39.228Z,0.29
2019-03-06T08:07:39.265Z,0.73
2019-03-06T08:08:39.224Z,0.57
2019-03-06T08:09:39.056Z,0.74
2019-03-06T08:10:39.069Z,0.98
2019-03-06T08:11:39.070Z,0.59
2019-03-06T08:12:39.064Z,0.51
2019-03-06T08:13:39.060Z,0.55
2019-03-06T08:14:39.073Z,0.18
2019-03-06T08:15:39.116Z,0.93
2019-03-06T08:16:39.136Z,0.99
2019-03-06T08:17:39.118Z,2.09
2019-03-06T08:18:39.134Z,2.58
2019-03-06T08:19:39.114Z,1.44
2019-03-06T08:20:39.119Z,2.76
2019-03-06T08:21:39.144Z,1.55
2019-03-06T08:22:39.147Z,2.48
2019-03-06T08:23:39.147Z,2.28
2019-03-06T08:24:39.166Z,3.53
2019-03-06T08:25:39.166Z,2.75
2019-03-06T08:26:39.164Z,2.91
2019-03-06T08:27:39.196Z,1.43
2019-03-06T08:28:39.188Z,2.76
2019-03-06T08:29:39.180Z,2.94
2019-03-06T08:30:39.181Z,3.15
2019-03-06T08:31:39.225Z,2.45
2019-03-06T08:32:39.214Z,1.13
2019-03-06T08:33:39.249Z,3.18
2019-03-06T08:34:39.242Z,3.12
2019-03-06T08:35:39.252Z,2.29
2019-03-06T08:36:39.228Z,1.37
2019-03-06T08:37:39.224Z,1.80
2019-03-06T08:38:39.242Z,1.60
2019-03-06T08:39:39.090Z,1.91
2019-03-06T08:40:39.090Z,0.68
2019-03-06T08:41:39.061Z,0.40
2019-03-06T08:42:39.094Z,1.63
2019-03-06T08:43:39.100Z,0.35
2019-03-06T08:44:39.080Z,1.98
2019-03-06T08:45:39.115Z,0.48
2019-03-06T08:46:39.113Z,2.42
2019-03-06T08:47:39.098Z,2.82
2019-03-06T08:48:39.113Z,2.11
2019-03-06T08:49:39.153Z,1.03
2019-03-06T08:50:39.125Z,1.39
2019-03-06T08:51:39.160Z,1.84
2019-03-06T08:52:39.167Z,1.62
2019-03-06T08:53:39.148Z,2.09
2019-03-06T08:54:39.148Z,4.17
2019-03-06T08:55:39.186Z,4.93
2019-03-06T08:56:39.173Z,3.31
2019-03-06T08:57:39.198Z,3.65
2019-03-06T08:58:39.194Z,1.81
2019-03-06T08:59:39.208Z,2.34
2019-03-06T09:00:39.235Z,1.31
2019-03-06T09:01:39.223Z,1.18
2019-03-06T09:02:39.210Z,3.47
2019-03-06T09:03:39.248Z,3.01
2019-03-06T09:04:39.278Z,2.52
2019-03-06T09:05:39.248Z,1.71
2019-03-06T09:06:39.248Z,1.59
2019-03-06T09:07:39.285Z,1.60
2019-03-06T09:08:39.258Z,2.91
2019-03-06T09:09:39.309Z,1.57
2019-03-06T09:10:39.088Z,0.25
2019-03-06T09:11:39.588Z,1.84
2019-03-06T09:12:39.076Z,1.57
2019-03-06T09:13:39.118Z,0.63
2019-03-06T09:14:39.093Z,0.60
2019-03-06T09:15:39.145Z,1.43
2019-03-06T09:16:39.187Z,1.89
2019-03-06T09:17:39.104Z,1.26
2019-03-06T09:18:39.130Z,1.47
2019-03-06T09:19:39.151Z,1.84
2019-03-06T09:20:41.029Z,1.94
2019-03-06T09:21:39.182Z,1.89
2019-03-06T09:22:39.204Z,3.75
2019-03-06T09:23:39.163Z,2.77
2019-03-06T09:24:39.163Z,2.93
2019-03-06T09:25:39.199Z,3.44
2019-03-06T09:26:39.181Z,1.31
2019-03-06T09:27:39.242Z,1.97
2019-03-06T09:28:39.228Z,2.22
2019-03-06T09:29:39.218Z,3.92
2019-03-06T09:30:39.279Z,4.47
2019-03-06T09:31:39.299Z,5.40
2019-03-06T09:32:39.289Z,3.08
2019-03-06T09:33:39.285Z,0.83
2019-03-06T09:34:39.318Z,2.38
2019-03-06T09:35:39.282Z,0.70
2019-03-06T09:36:39.299Z,2.84
2019-03-06T09:37:39.283Z,2.29
2019-03-06T09:38:39.294Z,2.00
2019-03-06T09:39:39.305Z,2.54
2019-03-06T09:40:39.318Z,3.40
2019-03-06T09:41:39.303Z,2.19
2019-03-06T09:42:39.127Z,1.79
2019-03-06T09:43:39.119Z,2.50
2019-03-06T09:44:39.117Z,2.05
2019-03-06T09:45:39.170Z,1.20
2019-03-06T09:46:39.158Z,1.47
2019-03-06T09:47:39.136Z,0.70
2019-03-06T09:48:39.161Z,2.38
2019-03-06T09:49:39.166Z,2.43
2019-03-06T09:50:39.159Z,2.03
2019-03-06T09:51:39.198Z,0.91
2019-03-06T09:52:39.216Z,2.53
2019-03-06T09:53:39.176Z,2.07
2019-03-06T09:54:39.197Z,2.65
2019-03-06T09:55:39.220Z,1.50
2019-03-06T09:56:39.206Z,1.89
2019-03-06T09:57:39.243Z,2.43
2019-03-06T09:58:39.251Z,4.06
2019-03-06T09:59:39.241Z,3.25
2019-03-06T10:00:39.212Z,2.30
2019-03-06T10:01:39.235Z,2.24
2019-03-06T10:02:39.248Z,2.26
2019-03-06T10:03:39.299Z,2.78
2019-03-06T10:04:39.301Z,2.54
2019-03-06T10:05:39.282Z,1.97
2019-03-06T10:06:39.301Z,1.21
2019-03-06T10:07:39.285Z,0.78
2019-03-06T10:08:39.307Z,1.26
2019-03-06T10:09:39.290Z,3.19
2019-03-06T10:10:45.982Z,2.30
2019-03-06T10:11:39.334Z,1.96
2019-03-06T10:12:47.202Z,3.07
2019-03-06T10:13:42.102Z,1.80
2019-03-06T10:14:39.159Z,2.66
2019-03-06T10:15:39.154Z,5.52
2019-03-06T10:16:39.167Z,4.26
2019-03-06T10:17:39.168Z,1.42
2019-03-06T10:18:39.167Z,1.94
2019-03-06T10:19:39.188Z,3.06
2019-03-06T10:20:39.181Z,1.38
2019-03-06T10:21:39.179Z,4.37
2019-03-06T10:22:39.226Z,4.11
2019-03-06T10:23:39.196Z,2.33
2019-03-06T10:24:39.226Z,2.12
2019-03-06T10:25:39.227Z,1.23
2019-03-06T10:26:39.230Z,3.40
2019-03-06T10:27:39.265Z,2.56
2019-03-06T10:28:39.265Z,1.72
2019-03-06T10:29:39.262Z,5.07
2019-03-06T10:30:39.225Z,1.62
2019-03-06T10:31:39.259Z,2.05
2019-03-06T10:32:39.262Z,4.05
2019-03-06T10:33:39.311Z,3.26
2019-03-06T10:34:39.292Z,3.34
2019-03-06T10:35:39.283Z,3.63
2019-03-06T10:36:39.293Z,3.90
2019-03-06T10:37:39.318Z,2.00
2019-03-06T10:38:39.318Z,2.24
2019-03-06T10:39:39.349Z,2.76
2019-03-06T10:40:39.374Z,2.54
2019-03-06T10:41:39.330Z,3.01
2019-03-06T10:42:39.349Z,1.56
2019-03-06T10:43:39.348Z,1.81
2019-03-06T10:44:39.347Z,2.03
2019-03-06T10:45:42.019Z,1.07
2019-03-06T10:46:39.215Z,1.81
2019-03-06T10:47:39.164Z,1.86
2019-03-06T10:48:39.197Z,1.31
2019-03-06T10:49:39.212Z,1.52
2019-03-06T10:50:39.201Z,0.40
2019-03-06T10:51:39.204Z,2.50
2019-03-06T10:52:39.227Z,2.86
2019-03-06T10:53:41.544Z,2.85
2019-03-06T10:54:44.611Z,5.25
2019-03-06T10:55:39.250Z,3.20
2019-03-06T10:56:39.247Z,3.39
2019-03-06T10:57:39.271Z,3.14
2019-03-06T10:58:39.238Z,1.79
2019-03-06T10:59:39.239Z,0.93
2019-03-06T11:00:39.286Z,0.47
2019-03-06T11:01:39.283Z,1.42
2019-03-06T11:02:39.290Z,1.91
2019-03-06T11:03:39.343Z,1.27
2019-03-06T11:04:39.325Z,2.60
2019-03-06T11:05:39.401Z,2.09
2019-03-06T11:06:39.318Z,1.93
2019-03-06T11:07:39.322Z,2.91
2019-03-06T11:08:39.380Z,1.69
2019-03-06T11:09:39.430Z,0.86
2019-03-06T11:10:39.368Z,3.02
2019-03-06T11:11:39.346Z,1.15
2019-03-06T11:12:39.381Z,1.89
2019-03-06T11:13:39.370Z,4.46
2019-03-06T11:14:39.373Z,4.03
2019-03-06T11:15:39.394Z,3.16
2019-03-06T11:16:39.198Z,4.62
2019-03-06T11:17:39.190Z,5.69
2019-03-06T11:18:39.176Z,4.46
2019-03-06T11:19:39.390Z,2.37
2019-03-06T11:20:40.670Z,4.13
2019-03-06T11:21:39.225Z,3.17
2019-03-06T11:22:39.230Z,4.13
2019-03-06T11:23:39.216Z,3.04
2019-03-06T11:24:39.248Z,3.06
2019-03-06T11:25:39.243Z,1.70
2019-03-06T11:26:39.242Z,1.47
2019-03-06T11:27:39.283Z,5.32
2019-03-06T11:28:39.278Z,2.20
2019-03-06T11:29:39.259Z,4.11
2019-03-06T11:30:39.270Z,2.73
2019-03-06T11:31:39.317Z,6.09
2019-03-06T11:32:39.314Z,3.27
2019-03-06T11:33:39.319Z,5.24
2019-03-06T11:34:39.346Z,3.79
2019-03-06T11:35:39.355Z,5.09
2019-03-06T11:36:39.328Z,4.59
2019-03-06T11:37:39.345Z,2.33
2019-03-06T11:38:39.343Z,2.36
2019-03-06T11:39:39.381Z,1.35
2019-03-06T11:40:39.353Z,1.96
2019-03-06T11:41:39.349Z,2.39
2019-03-06T11:42:39.387Z,3.38
2019-03-06T11:43:39.354Z,3.04
2019-03-06T11:44:39.371Z,1.91
2019-03-06T11:45:39.400Z,2.50
2019-03-06T11:46:39.414Z,4.00
2019-03-06T11:47:39.418Z,1.27
2019-03-06T11:48:39.203Z,1.07
2019-03-06T11:49:39.206Z,1.22
2019-03-06T11:50:41.163Z,2.53
2019-03-06T11:51:39.258Z,1.53
2019-03-06T11:52:39.246Z,0.96
2019-03-06T11:53:39.251Z,1.57
2019-03-06T11:54:39.244Z,0.98
2019-03-06T11:55:39.259Z,1.38
2019-03-06T11:56:39.256Z,2.15
2019-03-06T11:57:39.279Z,3.24
2019-03-06T11:58:39.280Z,3.80
2019-03-06T11:59:39.304Z,1.70
2019-03-06T12:00:39.318Z,0.31
2019-03-06T12:01:47.607Z,0.54
2019-03-06T12:02:39.332Z,1.48
2019-03-06T12:03:39.319Z,0.66
2019-03-06T12:04:39.324Z,0.76
2019-03-06T12:05:39.323Z,3.16
2019-03-06T12:06:39.333Z,5.43
2019-03-06T12:07:39.356Z,2.88
2019-03-06T12:08:45.654Z,1.93
2019-03-06T12:09:39.382Z,3.11
2019-03-06T12:10:39.405Z,2.75
2019-03-06T12:11:39.384Z,0.86
2019-03-06T12:12:39.389Z,2.28
2019-03-06T12:13:39.396Z,4.82
2019-03-06T12:14:39.382Z,1.65
2019-03-06T12:15:39.404Z,3.04
2019-03-06T12:16:42.054Z,4.47
2019-03-06T12:17:39.425Z,2.00
2019-03-06T12:18:39.450Z,3.35
2019-03-06T12:19:39.452Z,2.80
2019-03-06T12:20:39.433Z,1.86
2019-03-06T12:21:39.251Z,1.89
2019-03-06T12:22:39.291Z,2.05
2019-03-06T12:23:39.355Z,1.79
2019-03-06T12:24:39.258Z,2.45
2019-03-06T12:25:39.273Z,3.90
2019-03-06T12:26:39.267Z,2.61
2019-03-06T12:27:39.352Z,3.30
2019-03-06T12:28:39.318Z,2.50
2019-03-06T12:29:39.285Z,2.10
2019-03-06T12:30:39.326Z,2.16
2019-03-06T12:31:39.307Z,2.88
2019-03-06T12:32:39.312Z,2.76
2019-03-06T12:33:39.350Z,3.16
2019-03-06T12:34:39.349Z,3.29
2019-03-06T12:35:39.345Z,3.52
2019-03-06T12:36:39.338Z,1.69
2019-03-06T12:37:46.681Z,1.17
2019-03-06T12:38:40.249Z,2.58
2019-03-06T12:39:39.400Z,2.96
2019-03-06T12:40:39.411Z,2.67
2019-03-06T12:41:39.384Z,1.62
2019-03-06T12:42:39.395Z,1.73
2019-03-06T12:43:39.423Z,1.77
2019-03-06T12:44:39.421Z,1.97
2019-03-06T12:45:39.448Z,2.55
2019-03-06T12:46:39.473Z,3.00
2019-03-06T12:47:39.427Z,1.68
2019-03-06T12:48:39.433Z,3.50
2019-03-06T12:49:39.458Z,2.21
2019-03-06T12:50:39.465Z,2.85
2019-03-06T12:51:39.499Z,2.03
2019-03-06T12:52:39.276Z,3.23
2019-03-06T12:53:39.465Z,2.27
2019-03-06T12:54:39.504Z,3.11
2019-03-06T12:55:39.485Z,3.64
2019-03-06T12:56:39.510Z,2.06
2019-03-06T12:57:39.549Z,0.90
2019-03-06T12:58:39.550Z,1.21
2019-03-06T12:59:39.511Z,0.96
2019-03-06T13:00:39.528Z,1.17
2019-03-06T13:01:39.558Z,0.56
2019-03-06T13:02:39.546Z,2.21
2019-03-06T13:03:39.637Z,2.43
2019-03-06T13:04:41.194Z,1.13
2019-03-06T13:05:39.565Z,1.08
2019-03-06T13:06:39.587Z,3.09
2019-03-06T13:07:39.603Z,4.11
2019-03-06T13:08:49.578Z,1.72
2019-03-06T13:09:39.638Z,3.51
2019-03-06T13:10:39.615Z,5.87
2019-03-06T13:11:39.604Z,1.65
2019-03-06T13:12:39.415Z,3.33
2019-03-06T13:13:39.454Z,1.10
2019-03-06T13:14:39.421Z,3.12
2019-03-06T13:15:39.498Z,5.95
2019-03-06T13:16:41.088Z,4.40
2019-03-06T13:17:39.481Z,1.77
2019-03-06T13:18:39.447Z,2.80